sensor_id;sensor_type;location;lat;lon;timestamp;P1;durP1;ratioP1;P2;durP2;ratioP2
70806;SDS011;58882;52.170;5.386;2023-11-21T00:02:21;13.63;;;5.50;;
70806;SDS011;58882;52.170;5.386;2023-11-21T00:04:48;15.80;;;6.28;;
70806;SDS011;58882;52.170;5.386;2023-11-21T00:07:15;15.60;;;5.60;;
70806;SDS011;58882;52.170;5.386;2023-11-21T00:09:43;11.85;;;5.60;;
70806;SDS011;58882;52.170;5.386;2023-11-21T00:12:10;16.13;;;6.07;;
70806;SDS011;58882;52.170;5.386;2023-11-21T00:14:37;15.15;;;5.60;;
70806;SDS011;58882;52.170;5.386;2023-11-21T00:17:04;13.18;;;6.00;;
70806;SDS011;58882;52.170;5.386;2023-11-21T00:19:32;15.15;;;5.93;;
70806;SDS011;58882;52.170;5.386;2023-11-21T00:21:59;13.18;;;5.53;;
70806;SDS011;58882;52.170;5.386;2023-11-21T00:24:27;12.77;;;5.30;;
70806;SDS011;58882;52.170;5.386;2023-11-21T00:26:54;16.45;;;5.68;;
70806;SDS011;58882;52.170;5.386;2023-11-21T00:29:22;13.60;;;5.85;;
70806;SDS011;58882;52.170;5.386;2023-11-21T00:31:50;14.93;;;5.97;;
70806;SDS011;58882;52.170;5.386;2023-11-21T00:34:17;15.65;;;7.15;;
70806;SDS011;58882;52.170;5.386;2023-11-21T00:36:44;17.52;;;5.68;;
70806;SDS011;58882;52.170;5.386;2023-11-21T00:39:11;14.07;;;6.05;;
70806;SDS011;58882;52.170;5.386;2023-11-21T00:41:39;15.82;;;5.65;;
70806;SDS011;58882;52.170;5.386;2023-11-21T00:44:06;13.85;;;5.57;;
70806;SDS011;58882;52.170;5.386;2023-11-21T00:46:33;13.40;;;5.78;;
70806;SDS011;58882;52.170;5.386;2023-11-21T00:49:00;19.50;;;6.07;;
70806;SDS011;58882;52.170;5.386;2023-11-21T00:51:27;13.63;;;5.93;;
70806;SDS011;58882;52.170;5.386;2023-11-21T00:53:54;14.50;;;5.40;;
70806;SDS011;58882;52.170;5.386;2023-11-21T00:56:20;14.50;;;5.50;;
70806;SDS011;58882;52.170;5.386;2023-11-21T00:58:48;14.73;;;4.65;;
70806;SDS011;58882;52.170;5.386;2023-11-21T01:01:19;12.20;;;4.78;;
70806;SDS011;58882;52.170;5.386;2023-11-21T01:03:46;12.48;;;5.13;;
70806;SDS011;58882;52.170;5.386;2023-11-21T01:06:13;16.40;;;5.55;;
70806;SDS011;58882;52.170;5.386;2023-11-21T01:08:41;12.75;;;5.18;;
70806;SDS011;58882;52.170;5.386;2023-11-21T01:11:10;14.02;;;5.20;;
70806;SDS011;58882;52.170;5.386;2023-11-21T01:13:38;12.75;;;4.63;;
70806;SDS011;58882;52.170;5.386;2023-11-21T01:16:06;11.98;;;4.72;;
70806;SDS011;58882;52.170;5.386;2023-11-21T01:18:34;11.88;;;4.45;;
70806;SDS011;58882;52.170;5.386;2023-11-21T01:21:01;12.02;;;5.10;;
70806;SDS011;58882;52.170;5.386;2023-11-21T01:23:29;14.90;;;5.68;;
70806;SDS011;58882;52.170;5.386;2023-11-21T01:25:56;13.80;;;4.70;;
70806;SDS011;58882;52.170;5.386;2023-11-21T01:28:23;12.50;;;4.93;;
70806;SDS011;58882;52.170;5.386;2023-11-21T01:30:50;11.32;;;5.13;;
70806;SDS011;58882;52.170;5.386;2023-11-21T01:33:18;11.85;;;4.88;;
70806;SDS011;58882;52.170;5.386;2023-11-21T01:35:45;11.95;;;4.50;;
70806;SDS011;58882;52.170;5.386;2023-11-21T01:38:13;13.32;;;4.60;;
70806;SDS011;58882;52.170;5.386;2023-11-21T01:40:41;9.45;;;4.50;;
70806;SDS011;58882;52.170;5.386;2023-11-21T01:43:08;11.45;;;4.68;;
70806;SDS011;58882;52.170;5.386;2023-11-21T01:45:35;10.65;;;4.07;;
70806;SDS011;58882;52.170;5.386;2023-11-21T01:48:02;10.80;;;4.15;;
70806;SDS011;58882;52.170;5.386;2023-11-21T01:50:30;9.68;;;4.35;;
70806;SDS011;58882;52.170;5.386;2023-11-21T01:52:57;12.63;;;4.22;;
70806;SDS011;58882;52.170;5.386;2023-11-21T01:55:24;10.57;;;4.18;;
70806;SDS011;58882;52.170;5.386;2023-11-21T01:57:55;9.40;;;3.90;;
70806;SDS011;58882;52.170;5.386;2023-11-21T02:00:25;9.93;;;3.95;;
70806;SDS011;58882;52.170;5.386;2023-11-21T02:02:55;9.75;;;4.53;;
70806;SDS011;58882;52.170;5.386;2023-11-21T02:05:23;9.50;;;4.60;;
70806;SDS011;58882;52.170;5.386;2023-11-21T02:07:50;11.77;;;4.30;;
70806;SDS011;58882;52.170;5.386;2023-11-21T02:10:19;12.80;;;4.68;;
70806;SDS011;58882;52.170;5.386;2023-11-21T02:12:50;10.52;;;4.28;;
70806;SDS011;58882;52.170;5.386;2023-11-21T02:15:17;9.10;;;4.00;;
70806;SDS011;58882;52.170;5.386;2023-11-21T02:17:49;11.40;;;4.32;;
70806;SDS011;58882;52.170;5.386;2023-11-21T02:20:19;8.70;;;4.32;;
70806;SDS011;58882;52.170;5.386;2023-11-21T02:22:50;13.70;;;3.63;;
70806;SDS011;58882;52.170;5.386;2023-11-21T02:25:25;10.63;;;3.95;;
70806;SDS011;58882;52.170;5.386;2023-11-21T02:27:54;9.35;;;3.47;;
70806;SDS011;58882;52.170;5.386;2023-11-21T02:30:22;11.23;;;4.00;;
70806;SDS011;58882;52.170;5.386;2023-11-21T02:32:51;9.35;;;3.45;;
70806;SDS011;58882;52.170;5.386;2023-11-21T02:35:24;8.82;;;3.55;;
70806;SDS011;58882;52.170;5.386;2023-11-21T02:37:54;11.38;;;3.40;;
70806;SDS011;58882;52.170;5.386;2023-11-21T02:40:21;8.95;;;3.30;;
70806;SDS011;58882;52.170;5.386;2023-11-21T02:42:51;9.38;;;3.63;;
70806;SDS011;58882;52.170;5.386;2023-11-21T02:45:19;11.70;;;3.75;;
70806;SDS011;58882;52.170;5.386;2023-11-21T02:47:50;8.90;;;4.05;;
70806;SDS011;58882;52.170;5.386;2023-11-21T02:50:19;9.45;;;3.70;;
70806;SDS011;58882;52.170;5.386;2023-11-21T02:52:46;10.68;;;3.85;;
70806;SDS011;58882;52.170;5.386;2023-11-21T02:55:13;12.10;;;4.00;;
70806;SDS011;58882;52.170;5.386;2023-11-21T02:57:41;12.00;;;3.67;;
70806;SDS011;58882;52.170;5.386;2023-11-21T03:00:08;9.25;;;3.53;;
70806;SDS011;58882;52.170;5.386;2023-11-21T03:02:40;10.40;;;3.70;;
70806;SDS011;58882;52.170;5.386;2023-11-21T03:05:07;9.02;;;3.40;;
70806;SDS011;58882;52.170;5.386;2023-11-21T03:07:39;11.27;;;3.80;;
70806;SDS011;58882;52.170;5.386;2023-11-21T03:10:07;9.85;;;3.97;;
70806;SDS011;58882;52.170;5.386;2023-11-21T03:12:41;12.10;;;3.72;;
70806;SDS011;58882;52.170;5.386;2023-11-21T03:15:08;10.80;;;3.50;;
70806;SDS011;58882;52.170;5.386;2023-11-21T03:17:36;11.10;;;3.70;;
70806;SDS011;58882;52.170;5.386;2023-11-21T03:20:03;8.85;;;3.28;;
70806;SDS011;58882;52.170;5.386;2023-11-21T03:22:31;10.48;;;3.45;;
70806;SDS011;58882;52.170;5.386;2023-11-21T03:24:58;8.57;;;3.25;;
70806;SDS011;58882;52.170;5.386;2023-11-21T03:27:26;8.48;;;3.30;;
70806;SDS011;58882;52.170;5.386;2023-11-21T03:29:52;8.73;;;3.58;;
70806;SDS011;58882;52.170;5.386;2023-11-21T03:32:21;11.60;;;3.85;;
70806;SDS011;58882;52.170;5.386;2023-11-21T03:34:57;8.25;;;3.42;;
70806;SDS011;58882;52.170;5.386;2023-11-21T03:37:26;8.75;;;3.55;;
70806;SDS011;58882;52.170;5.386;2023-11-21T03:42:22;8.68;;;3.53;;
70806;SDS011;58882;52.170;5.386;2023-11-21T03:44:50;8.18;;;3.25;;
70806;SDS011;58882;52.170;5.386;2023-11-21T03:47:17;9.35;;;3.47;;
70806;SDS011;58882;52.170;5.386;2023-11-21T03:49:45;10.57;;;3.45;;
70806;SDS011;58882;52.170;5.386;2023-11-21T03:52:15;10.25;;;3.47;;
70806;SDS011;58882;52.170;5.386;2023-11-21T03:54:42;10.93;;;3.40;;
70806;SDS011;58882;52.170;5.386;2023-11-21T03:57:09;12.00;;;3.83;;
70806;SDS011;58882;52.170;5.386;2023-11-21T03:59:40;11.00;;;3.67;;
70806;SDS011;58882;52.170;5.386;2023-11-21T04:02:08;9.73;;;3.30;;
70806;SDS011;58882;52.170;5.386;2023-11-21T04:04:35;10.52;;;3.40;;
70806;SDS011;58882;52.170;5.386;2023-11-21T04:07:02;9.90;;;4.03;;
70806;SDS011;58882;52.170;5.386;2023-11-21T04:09:30;8.77;;;3.60;;
70806;SDS011;58882;52.170;5.386;2023-11-21T04:11:57;10.73;;;3.53;;
70806;SDS011;58882;52.170;5.386;2023-11-21T04:14:24;9.05;;;3.70;;
70806;SDS011;58882;52.170;5.386;2023-11-21T04:16:51;10.52;;;3.22;;
70806;SDS011;58882;52.170;5.386;2023-11-21T04:19:18;8.82;;;3.30;;
70806;SDS011;58882;52.170;5.386;2023-11-21T04:21:45;10.82;;;3.03;;
70806;SDS011;58882;52.170;5.386;2023-11-21T04:24:12;9.45;;;3.53;;
70806;SDS011;58882;52.170;5.386;2023-11-21T04:26:39;8.85;;;3.20;;
70806;SDS011;58882;52.170;5.386;2023-11-21T04:29:05;8.02;;;3.33;;
70806;SDS011;58882;52.170;5.386;2023-11-21T04:31:32;9.75;;;3.38;;
70806;SDS011;58882;52.170;5.386;2023-11-21T04:33:59;13.65;;;3.97;;
70806;SDS011;58882;52.170;5.386;2023-11-21T04:36:26;9.05;;;3.72;;
70806;SDS011;58882;52.170;5.386;2023-11-21T04:38:53;10.60;;;3.85;;
70806;SDS011;58882;52.170;5.386;2023-11-21T04:41:20;10.38;;;3.90;;
70806;SDS011;58882;52.170;5.386;2023-11-21T04:43:47;10.75;;;3.65;;
70806;SDS011;58882;52.170;5.386;2023-11-21T04:46:14;9.65;;;3.85;;
70806;SDS011;58882;52.170;5.386;2023-11-21T04:48:41;10.05;;;3.90;;
70806;SDS011;58882;52.170;5.386;2023-11-21T04:51:07;12.05;;;4.20;;
70806;SDS011;58882;52.170;5.386;2023-11-21T04:53:34;13.30;;;4.60;;
70806;SDS011;58882;52.170;5.386;2023-11-21T04:56:02;10.98;;;4.68;;
70806;SDS011;58882;52.170;5.386;2023-11-21T04:58:29;11.27;;;3.92;;
70806;SDS011;58882;52.170;5.386;2023-11-21T05:00:57;10.35;;;4.20;;
70806;SDS011;58882;52.170;5.386;2023-11-21T05:03:24;10.63;;;4.32;;
70806;SDS011;58882;52.170;5.386;2023-11-21T05:05:51;13.90;;;4.95;;
70806;SDS011;58882;52.170;5.386;2023-11-21T05:08:18;12.48;;;4.10;;
70806;SDS011;58882;52.170;5.386;2023-11-21T05:10:46;12.60;;;4.88;;
70806;SDS011;58882;52.170;5.386;2023-11-21T05:13:13;10.13;;;4.68;;
70806;SDS011;58882;52.170;5.386;2023-11-21T05:15:43;11.98;;;4.32;;
70806;SDS011;58882;52.170;5.386;2023-11-21T05:18:11;14.85;;;4.82;;
70806;SDS011;58882;52.170;5.386;2023-11-21T05:20:40;10.23;;;4.10;;
70806;SDS011;58882;52.170;5.386;2023-11-21T05:23:07;13.55;;;4.68;;
70806;SDS011;58882;52.170;5.386;2023-11-21T05:25:34;12.15;;;4.53;;
70806;SDS011;58882;52.170;5.386;2023-11-21T05:28:05;15.43;;;5.00;;
70806;SDS011;58882;52.170;5.386;2023-11-21T05:30:33;10.73;;;4.43;;
70806;SDS011;58882;52.170;5.386;2023-11-21T05:33:00;11.65;;;4.65;;
70806;SDS011;58882;52.170;5.386;2023-11-21T05:35:26;13.23;;;4.32;;
70806;SDS011;58882;52.170;5.386;2023-11-21T05:37:53;11.13;;;4.40;;
70806;SDS011;58882;52.170;5.386;2023-11-21T05:40:20;13.63;;;4.70;;
70806;SDS011;58882;52.170;5.386;2023-11-21T05:42:49;11.23;;;4.72;;
70806;SDS011;58882;52.170;5.386;2023-11-21T05:45:17;10.43;;;4.40;;
70806;SDS011;58882;52.170;5.386;2023-11-21T05:47:45;13.38;;;4.72;;
70806;SDS011;58882;52.170;5.386;2023-11-21T05:50:14;11.75;;;4.70;;
70806;SDS011;58882;52.170;5.386;2023-11-21T05:52:46;11.30;;;4.35;;
70806;SDS011;58882;52.170;5.386;2023-11-21T05:55:14;13.30;;;4.72;;
70806;SDS011;58882;52.170;5.386;2023-11-21T05:57:41;11.82;;;4.50;;
70806;SDS011;58882;52.170;5.386;2023-11-21T06:00:10;12.02;;;4.45;;
70806;SDS011;58882;52.170;5.386;2023-11-21T06:02:47;9.20;;;4.13;;
70806;SDS011;58882;52.170;5.386;2023-11-21T06:05:20;12.23;;;4.93;;
70806;SDS011;58882;52.170;5.386;2023-11-21T06:07:53;12.68;;;4.63;;
70806;SDS011;58882;52.170;5.386;2023-11-21T06:10:21;13.68;;;5.15;;
70806;SDS011;58882;52.170;5.386;2023-11-21T06:12:51;12.27;;;4.43;;
70806;SDS011;58882;52.170;5.386;2023-11-21T06:15:18;12.82;;;4.82;;
70806;SDS011;58882;52.170;5.386;2023-11-21T06:17:47;14.18;;;4.68;;
70806;SDS011;58882;52.170;5.386;2023-11-21T06:20:21;13.80;;;4.07;;
70806;SDS011;58882;52.170;5.386;2023-11-21T06:22:49;8.45;;;3.35;;
70806;SDS011;58882;52.170;5.386;2023-11-21T06:25:16;11.20;;;4.00;;
70806;SDS011;58882;52.170;5.386;2023-11-21T06:27:44;8.70;;;3.80;;
70806;SDS011;58882;52.170;5.386;2023-11-21T06:30:16;12.05;;;4.15;;
70806;SDS011;58882;52.170;5.386;2023-11-21T06:32:46;9.80;;;4.22;;
70806;SDS011;58882;52.170;5.386;2023-11-21T06:35:14;12.73;;;4.35;;
70806;SDS011;58882;52.170;5.386;2023-11-21T06:37:43;8.82;;;3.83;;
70806;SDS011;58882;52.170;5.386;2023-11-21T06:40:18;11.73;;;3.58;;
70806;SDS011;58882;52.170;5.386;2023-11-21T06:45:14;8.80;;;3.67;;
70806;SDS011;58882;52.170;5.386;2023-11-21T06:47:41;8.88;;;3.95;;
70806;SDS011;58882;52.170;5.386;2023-11-21T06:50:09;11.52;;;4.10;;
70806;SDS011;58882;52.170;5.386;2023-11-21T06:52:36;10.18;;;3.80;;
70806;SDS011;58882;52.170;5.386;2023-11-21T06:55:03;8.55;;;3.80;;
70806;SDS011;58882;52.170;5.386;2023-11-21T06:57:31;8.23;;;3.78;;
70806;SDS011;58882;52.170;5.386;2023-11-21T06:59:58;9.65;;;3.85;;
70806;SDS011;58882;52.170;5.386;2023-11-21T07:02:25;10.60;;;4.03;;
70806;SDS011;58882;52.170;5.386;2023-11-21T07:04:52;9.48;;;3.47;;
70806;SDS011;58882;52.170;5.386;2023-11-21T07:07:19;11.85;;;3.30;;
70806;SDS011;58882;52.170;5.386;2023-11-21T07:09:46;7.88;;;3.20;;
70806;SDS011;58882;52.170;5.386;2023-11-21T07:12:14;12.63;;;3.00;;
70806;SDS011;58882;52.170;5.386;2023-11-21T07:14:41;7.57;;;2.90;;
70806;SDS011;58882;52.170;5.386;2023-11-21T07:17:11;9.48;;;3.35;;
70806;SDS011;58882;52.170;5.386;2023-11-21T07:19:38;7.35;;;2.80;;
70806;SDS011;58882;52.170;5.386;2023-11-21T07:22:05;9.27;;;3.30;;
70806;SDS011;58882;52.170;5.386;2023-11-21T07:24:32;10.48;;;2.85;;
70806;SDS011;58882;52.170;5.386;2023-11-21T07:27:00;8.23;;;3.30;;
70806;SDS011;58882;52.170;5.386;2023-11-21T07:29:27;8.15;;;2.88;;
70806;SDS011;58882;52.170;5.386;2023-11-21T07:31:56;8.10;;;2.80;;
70806;SDS011;58882;52.170;5.386;2023-11-21T07:34:23;10.35;;;2.70;;
70806;SDS011;58882;52.170;5.386;2023-11-21T07:36:50;7.07;;;2.70;;
70806;SDS011;58882;52.170;5.386;2023-11-21T07:39:17;7.45;;;2.90;;
70806;SDS011;58882;52.170;5.386;2023-11-21T07:41:44;5.53;;;2.50;;
70806;SDS011;58882;52.170;5.386;2023-11-21T07:44:16;11.00;;;2.88;;
70806;SDS011;58882;52.170;5.386;2023-11-21T07:46:46;7.63;;;2.78;;
70806;SDS011;58882;52.170;5.386;2023-11-21T07:49:16;9.05;;;2.55;;
70806;SDS011;58882;52.170;5.386;2023-11-21T07:51:43;6.40;;;2.20;;
70806;SDS011;58882;52.170;5.386;2023-11-21T07:54:10;5.63;;;2.13;;
70806;SDS011;58882;52.170;5.386;2023-11-21T07:56:37;6.30;;;2.47;;
70806;SDS011;58882;52.170;5.386;2023-11-21T07:59:04;5.40;;;2.05;;
70806;SDS011;58882;52.170;5.386;2023-11-21T08:01:31;5.25;;;2.15;;
70806;SDS011;58882;52.170;5.386;2023-11-21T08:03:58;6.15;;;2.33;;
70806;SDS011;58882;52.170;5.386;2023-11-21T08:06:30;5.15;;;2.20;;
70806;SDS011;58882;52.170;5.386;2023-11-21T08:08:57;5.18;;;1.90;;
70806;SDS011;58882;52.170;5.386;2023-11-21T08:11:24;4.15;;;1.80;;
70806;SDS011;58882;52.170;5.386;2023-11-21T08:13:52;6.53;;;2.13;;
70806;SDS011;58882;52.170;5.386;2023-11-21T08:16:20;4.43;;;1.70;;
70806;SDS011;58882;52.170;5.386;2023-11-21T08:18:47;4.97;;;1.98;;
70806;SDS011;58882;52.170;5.386;2023-11-21T08:21:14;6.60;;;2.22;;
70806;SDS011;58882;52.170;5.386;2023-11-21T08:23:41;5.32;;;2.10;;
70806;SDS011;58882;52.170;5.386;2023-11-21T08:26:08;5.55;;;1.95;;
70806;SDS011;58882;52.170;5.386;2023-11-21T08:28:35;5.20;;;1.95;;
70806;SDS011;58882;52.170;5.386;2023-11-21T08:31:02;5.85;;;2.03;;
70806;SDS011;58882;52.170;5.386;2023-11-21T08:35:57;5.05;;;1.67;;
70806;SDS011;58882;52.170;5.386;2023-11-21T08:38:24;4.20;;;1.73;;
70806;SDS011;58882;52.170;5.386;2023-11-21T08:40:51;5.70;;;2.17;;
70806;SDS011;58882;52.170;5.386;2023-11-21T08:43:18;5.50;;;1.95;;
70806;SDS011;58882;52.170;5.386;2023-11-21T08:45:46;5.35;;;1.80;;
70806;SDS011;58882;52.170;5.386;2023-11-21T08:48:13;5.05;;;1.80;;
70806;SDS011;58882;52.170;5.386;2023-11-21T08:50:40;4.63;;;1.67;;
70806;SDS011;58882;52.170;5.386;2023-11-21T08:53:07;5.25;;;1.98;;
70806;SDS011;58882;52.170;5.386;2023-11-21T08:55:33;6.10;;;1.80;;
70806;SDS011;58882;52.170;5.386;2023-11-21T08:58:03;5.22;;;2.10;;
70806;SDS011;58882;52.170;5.386;2023-11-21T09:00:32;5.25;;;1.70;;
70806;SDS011;58882;52.170;5.386;2023-11-21T09:03:00;8.82;;;2.20;;
70806;SDS011;58882;52.170;5.386;2023-11-21T09:05:28;5.30;;;1.90;;
70806;SDS011;58882;52.170;5.386;2023-11-21T09:07:55;5.50;;;2.10;;
70806;SDS011;58882;52.170;5.386;2023-11-21T09:10:22;7.65;;;2.20;;
70806;SDS011;58882;52.170;5.386;2023-11-21T09:12:50;7.18;;;2.60;;
70806;SDS011;58882;52.170;5.386;2023-11-21T09:15:18;5.82;;;2.22;;
70806;SDS011;58882;52.170;5.386;2023-11-21T09:17:47;6.85;;;2.13;;
70806;SDS011;58882;52.170;5.386;2023-11-21T09:20:14;5.30;;;2.17;;
70806;SDS011;58882;52.170;5.386;2023-11-21T09:22:41;6.88;;;2.22;;
70806;SDS011;58882;52.170;5.386;2023-11-21T09:25:11;5.82;;;2.63;;
70806;SDS011;58882;52.170;5.386;2023-11-21T09:27:39;5.85;;;2.20;;
70806;SDS011;58882;52.170;5.386;2023-11-21T09:30:06;6.47;;;2.38;;
70806;SDS011;58882;52.170;5.386;2023-11-21T09:32:39;7.38;;;2.58;;
70806;SDS011;58882;52.170;5.386;2023-11-21T09:35:07;6.78;;;2.40;;
70806;SDS011;58882;52.170;5.386;2023-11-21T09:37:35;7.97;;;2.90;;
70806;SDS011;58882;52.170;5.386;2023-11-21T09:40:02;6.18;;;2.28;;
70806;SDS011;58882;52.170;5.386;2023-11-21T09:42:36;6.60;;;2.30;;
70806;SDS011;58882;52.170;5.386;2023-11-21T09:45:14;6.57;;;2.60;;
70806;SDS011;58882;52.170;5.386;2023-11-21T09:47:46;5.25;;;2.25;;
70806;SDS011;58882;52.170;5.386;2023-11-21T09:50:14;6.30;;;2.05;;
70806;SDS011;58882;52.170;5.386;2023-11-21T09:52:55;5.43;;;2.40;;
70806;SDS011;58882;52.170;5.386;2023-11-21T09:55:45;5.50;;;2.40;;
70806;SDS011;58882;52.170;5.386;2023-11-21T09:58:14;5.60;;;2.30;;
70806;SDS011;58882;52.170;5.386;2023-11-21T10:00:42;6.55;;;2.40;;
70806;SDS011;58882;52.170;5.386;2023-11-21T10:03:11;5.97;;;2.50;;
70806;SDS011;58882;52.170;5.386;2023-11-21T10:05:39;5.53;;;2.13;;
70806;SDS011;58882;52.170;5.386;2023-11-21T10:08:09;5.80;;;2.05;;
70806;SDS011;58882;52.170;5.386;2023-11-21T10:10:37;6.45;;;2.10;;
70806;SDS011;58882;52.170;5.386;2023-11-21T10:13:05;6.65;;;2.15;;
70806;SDS011;58882;52.170;5.386;2023-11-21T10:15:33;5.22;;;1.90;;
70806;SDS011;58882;52.170;5.386;2023-11-21T10:18:04;5.43;;;2.03;;
70806;SDS011;58882;52.170;5.386;2023-11-21T10:20:33;6.40;;;2.25;;
70806;SDS011;58882;52.170;5.386;2023-11-21T10:23:01;7.18;;;2.28;;
70806;SDS011;58882;52.170;5.386;2023-11-21T10:25:31;5.45;;;2.13;;
70806;SDS011;58882;52.170;5.386;2023-11-21T10:28:01;4.82;;;2.05;;
70806;SDS011;58882;52.170;5.386;2023-11-21T10:30:34;7.05;;;2.50;;
70806;SDS011;58882;52.170;5.386;2023-11-21T10:33:04;5.85;;;2.58;;
70806;SDS011;58882;52.170;5.386;2023-11-21T10:35:38;5.18;;;1.80;;
70806;SDS011;58882;52.170;5.386;2023-11-21T10:38:17;4.53;;;1.90;;
70806;SDS011;58882;52.170;5.386;2023-11-21T10:40:47;3.92;;;1.83;;
70806;SDS011;58882;52.170;5.386;2023-11-21T10:43:15;5.70;;;2.25;;
70806;SDS011;58882;52.170;5.386;2023-11-21T10:45:42;4.63;;;1.88;;
70806;SDS011;58882;52.170;5.386;2023-11-21T10:48:10;6.00;;;2.10;;
70806;SDS011;58882;52.170;5.386;2023-11-21T10:50:43;5.03;;;1.90;;
70806;SDS011;58882;52.170;5.386;2023-11-21T10:53:11;4.90;;;1.70;;
70806;SDS011;58882;52.170;5.386;2023-11-21T10:55:39;7.13;;;2.50;;
70806;SDS011;58882;52.170;5.386;2023-11-21T10:58:07;6.07;;;2.35;;
70806;SDS011;58882;52.170;5.386;2023-11-21T11:00:37;7.07;;;2.70;;
70806;SDS011;58882;52.170;5.386;2023-11-21T11:03:06;6.65;;;2.53;;
70806;SDS011;58882;52.170;5.386;2023-11-21T11:05:43;5.68;;;2.38;;
70806;SDS011;58882;52.170;5.386;2023-11-21T11:08:19;5.47;;;2.42;;
70806;SDS011;58882;52.170;5.386;2023-11-21T11:10:53;5.97;;;2.30;;
70806;SDS011;58882;52.170;5.386;2023-11-21T11:13:21;5.85;;;2.60;;
70806;SDS011;58882;52.170;5.386;2023-11-21T11:15:49;7.18;;;2.33;;
70806;SDS011;58882;52.170;5.386;2023-11-21T11:18:17;5.90;;;2.58;;
70806;SDS011;58882;52.170;5.386;2023-11-21T11:20:47;5.50;;;2.30;;
70806;SDS011;58882;52.170;5.386;2023-11-21T11:23:24;5.07;;;2.45;;
70806;SDS011;58882;52.170;5.386;2023-11-21T11:34:28;6.63;;;2.67;;
70806;SDS011;58882;52.170;5.386;2023-11-21T11:39:36;6.90;;;2.70;;
70806;SDS011;58882;52.170;5.386;2023-11-21T11:47:15;4.65;;;1.95;;
70806;SDS011;58882;52.170;5.386;2023-11-21T11:52:47;5.63;;;2.38;;
70806;SDS011;58882;52.170;5.386;2023-11-21T11:55:16;7.28;;;2.60;;
70806;SDS011;58882;52.170;5.386;2023-11-21T11:57:45;6.43;;;2.78;;
70806;SDS011;58882;52.170;5.386;2023-11-21T12:02:48;8.45;;;3.17;;
70806;SDS011;58882;52.170;5.386;2023-11-21T12:05:19;7.18;;;2.65;;
70806;SDS011;58882;52.170;5.386;2023-11-21T12:07:48;6.90;;;2.85;;
70806;SDS011;58882;52.170;5.386;2023-11-21T12:10:21;6.68;;;2.70;;
70806;SDS011;58882;52.170;5.386;2023-11-21T12:12:53;6.75;;;2.90;;
70806;SDS011;58882;52.170;5.386;2023-11-21T12:15:24;7.45;;;3.30;;
70806;SDS011;58882;52.170;5.386;2023-11-21T12:17:53;8.20;;;3.67;;
70806;SDS011;58882;52.170;5.386;2023-11-21T12:20:20;6.93;;;3.33;;
70806;SDS011;58882;52.170;5.386;2023-11-21T12:22:50;6.53;;;2.90;;
70806;SDS011;58882;52.170;5.386;2023-11-21T12:25:18;7.85;;;3.20;;
70806;SDS011;58882;52.170;5.386;2023-11-21T12:27:51;6.53;;;3.08;;
70806;SDS011;58882;52.170;5.386;2023-11-21T12:30:20;6.75;;;3.10;;
70806;SDS011;58882;52.170;5.386;2023-11-21T12:32:52;7.22;;;3.13;;
70806;SDS011;58882;52.170;5.386;2023-11-21T12:35:20;6.47;;;2.90;;
70806;SDS011;58882;52.170;5.386;2023-11-21T12:37:52;7.68;;;2.95;;
70806;SDS011;58882;52.170;5.386;2023-11-21T12:40:20;6.22;;;2.90;;
70806;SDS011;58882;52.170;5.386;2023-11-21T12:42:53;7.55;;;2.85;;
70806;SDS011;58882;52.170;5.386;2023-11-21T12:45:26;7.68;;;3.28;;
70806;SDS011;58882;52.170;5.386;2023-11-21T12:48:04;7.78;;;3.03;;
70806;SDS011;58882;52.170;5.386;2023-11-21T12:50:35;7.53;;;3.22;;
70806;SDS011;58882;52.170;5.386;2023-11-21T12:53:04;7.18;;;3.25;;
70806;SDS011;58882;52.170;5.386;2023-11-21T12:55:43;7.13;;;3.22;;
70806;SDS011;58882;52.170;5.386;2023-11-21T12:58:16;6.47;;;2.67;;
70806;SDS011;58882;52.170;5.386;2023-11-21T13:00:44;7.78;;;3.03;;
70806;SDS011;58882;52.170;5.386;2023-11-21T13:03:14;6.72;;;2.88;;
70806;SDS011;58882;52.170;5.386;2023-11-21T13:05:46;6.00;;;2.88;;
70806;SDS011;58882;52.170;5.386;2023-11-21T13:08:23;6.95;;;2.85;;
70806;SDS011;58882;52.170;5.386;2023-11-21T13:10:55;6.55;;;2.75;;
70806;SDS011;58882;52.170;5.386;2023-11-21T13:13:24;6.10;;;2.50;;
70806;SDS011;58882;52.170;5.386;2023-11-21T13:15:55;6.40;;;2.40;;
70806;SDS011;58882;52.170;5.386;2023-11-21T13:18:23;5.63;;;2.40;;
70806;SDS011;58882;52.170;5.386;2023-11-21T13:20:56;5.40;;;2.28;;
70806;SDS011;58882;52.170;5.386;2023-11-21T13:23:28;6.63;;;2.50;;
70806;SDS011;58882;52.170;5.386;2023-11-21T13:25:58;5.45;;;2.33;;
70806;SDS011;58882;52.170;5.386;2023-11-21T13:28:33;5.07;;;2.30;;
70806;SDS011;58882;52.170;5.386;2023-11-21T13:31:01;5.32;;;2.50;;
70806;SDS011;58882;52.170;5.386;2023-11-21T13:33:37;3.88;;;1.95;;
70806;SDS011;58882;52.170;5.386;2023-11-21T13:36:05;4.10;;;2.00;;
70806;SDS011;58882;52.170;5.386;2023-11-21T13:38:35;4.30;;;2.03;;
70806;SDS011;58882;52.170;5.386;2023-11-21T13:41:03;5.65;;;2.30;;
70806;SDS011;58882;52.170;5.386;2023-11-21T13:43:34;4.55;;;2.00;;
70806;SDS011;58882;52.170;5.386;2023-11-21T13:46:00;4.47;;;2.10;;
70806;SDS011;58882;52.170;5.386;2023-11-21T13:48:30;5.05;;;2.20;;
70806;SDS011;58882;52.170;5.386;2023-11-21T13:51:08;4.60;;;2.13;;
70806;SDS011;58882;52.170;5.386;2023-11-21T13:53:45;4.93;;;2.30;;
70806;SDS011;58882;52.170;5.386;2023-11-21T13:56:19;5.88;;;2.08;;
70806;SDS011;58882;52.170;5.386;2023-11-21T13:58:51;4.70;;;1.98;;
70806;SDS011;58882;52.170;5.386;2023-11-21T14:01:19;5.07;;;2.10;;
70806;SDS011;58882;52.170;5.386;2023-11-21T14:04:00;5.20;;;2.47;;
70806;SDS011;58882;52.170;5.386;2023-11-21T14:06:38;5.07;;;2.30;;
70806;SDS011;58882;52.170;5.386;2023-11-21T14:09:18;8.18;;;3.72;;
70806;SDS011;58882;52.170;5.386;2023-11-21T14:11:57;6.28;;;2.58;;
70806;SDS011;58882;52.170;5.386;2023-11-21T14:14:24;5.80;;;3.10;;
70806;SDS011;58882;52.170;5.386;2023-11-21T14:16:52;5.38;;;2.70;;
70806;SDS011;58882;52.170;5.386;2023-11-21T14:19:19;6.60;;;3.00;;
70806;SDS011;58882;52.170;5.386;2023-11-21T14:21:47;5.95;;;2.97;;
70806;SDS011;58882;52.170;5.386;2023-11-21T14:24:17;6.68;;;3.10;;
70806;SDS011;58882;52.170;5.386;2023-11-21T14:26:45;8.65;;;3.83;;
70806;SDS011;58882;52.170;5.386;2023-11-21T14:29:13;6.95;;;3.33;;
70806;SDS011;58882;52.170;5.386;2023-11-21T14:31:46;7.30;;;3.40;;
70806;SDS011;58882;52.170;5.386;2023-11-21T14:34:13;6.50;;;3.10;;
70806;SDS011;58882;52.170;5.386;2023-11-21T14:36:45;6.47;;;3.30;;
70806;SDS011;58882;52.170;5.386;2023-11-21T14:39:12;8.15;;;3.70;;
70806;SDS011;58882;52.170;5.386;2023-11-21T14:41:55;7.60;;;3.08;;
70806;SDS011;58882;52.170;5.386;2023-11-21T14:44:24;6.60;;;3.00;;
70806;SDS011;58882;52.170;5.386;2023-11-21T14:46:54;6.75;;;3.40;;
70806;SDS011;58882;52.170;5.386;2023-11-21T14:49:24;6.85;;;3.25;;
70806;SDS011;58882;52.170;5.386;2023-11-21T14:51:55;7.63;;;3.45;;
70806;SDS011;58882;52.170;5.386;2023-11-21T14:54:22;7.45;;;3.50;;
70806;SDS011;58882;52.170;5.386;2023-11-21T14:57:09;7.35;;;3.97;;
70806;SDS011;58882;52.170;5.386;2023-11-21T14:59:47;7.18;;;3.42;;
70806;SDS011;58882;52.170;5.386;2023-11-21T15:02:19;7.38;;;3.60;;
70806;SDS011;58882;52.170;5.386;2023-11-21T15:05:10;7.47;;;3.40;;
70806;SDS011;58882;52.170;5.386;2023-11-21T15:07:43;7.40;;;3.47;;
70806;SDS011;58882;52.170;5.386;2023-11-21T15:10:12;8.68;;;3.80;;
70806;SDS011;58882;52.170;5.386;2023-11-21T15:12:42;8.68;;;4.20;;
70806;SDS011;58882;52.170;5.386;2023-11-21T15:17:38;8.32;;;4.05;;
70806;SDS011;58882;52.170;5.386;2023-11-21T15:20:09;7.25;;;3.92;;
70806;SDS011;58882;52.170;5.386;2023-11-21T15:22:39;9.60;;;4.40;;
70806;SDS011;58882;52.170;5.386;2023-11-21T15:25:06;7.45;;;3.85;;
70806;SDS011;58882;52.170;5.386;2023-11-21T15:27:36;7.65;;;3.75;;